GCTS/TFS METAR and TAF weather

Enter ICAO airport designator
Station Type Date Time Source
GCTS METAR 2018/01/19 17:30 UTC NOAA

GCTS 191730Z 07016KT 9999 FEW040 20/11 Q1023 WS R07 NOSIG


Station Type Date Time Source
GCTS Decoded METAR 2018/01/19 17:30 UTC NOAA

Tenerife Sur, Spain (GCTS) 28-03N 016-34W 77M
Jan 19, 2018 - 12:30 PM EST / 2018.01.19 1730 UTC
Wind: from the ENE (070 degrees) at 18 MPH (16 KT):0
Visibility: greater than 7 mile(s):0
Sky conditions: mostly clear
Temperature: 68 F (20 C)
Dew Point: 51 F (11 C)
Relative Humidity: 56%
Pressure (altimeter): 30.21 in. Hg (1023 hPa)
ob: GCTS 191730Z 07016KT 9999 FEW040 20/11 Q1023 WS R07 NOSIG
cycle: 17

Station Type Date Time Source
GCTS TAF 2018/01/19 15:29 UTC NOAA

TAF GCTS 191400Z 1915/2015 09016KT 9999 FEW040 TX23/2014Z TN14/2006Z
TEMPO 1919/1924 03006KT
TEMPO 1915/2015 10020G30KT


Example: see airport list